sensor_id;sensor_type;location;lat;lon;timestamp;P1;durP1;ratioP1;P2;durP2;ratioP2
60641;SDS011;46837;52.446;-1.930;2023-02-12T00:00:07;6.52;;;2.52;;
60641;SDS011;46837;52.446;-1.930;2023-02-12T00:01:10;4.92;;;2.64;;
60641;SDS011;46837;52.446;-1.930;2023-02-12T00:02:07;4.32;;;2.60;;
60641;SDS011;46837;52.446;-1.930;2023-02-12T00:03:07;7.98;;;3.24;;
60641;SDS011;46837;52.446;-1.930;2023-02-12T00:04:07;5.20;;;3.40;;
60641;SDS011;46837;52.446;-1.930;2023-02-12T00:05:07;3.00;;;2.70;;
60641;SDS011;46837;52.446;-1.930;2023-02-12T00:06:07;2.28;;;2.04;;
60641;SDS011;46837;52.446;-1.930;2023-02-12T00:07:07;3.82;;;3.08;;
60641;SDS011;46837;52.446;-1.930;2023-02-12T00:08:07;5.06;;;2.50;;
60641;SDS011;46837;52.446;-1.930;2023-02-12T00:09:07;3.70;;;2.28;;
60641;SDS011;46837;52.446;-1.930;2023-02-12T00:10:07;4.08;;;2.68;;
60641;SDS011;46837;52.446;-1.930;2023-02-12T00:11:08;4.20;;;2.84;;
60641;SDS011;46837;52.446;-1.930;2023-02-12T00:12:07;6.06;;;2.88;;
60641;SDS011;46837;52.446;-1.930;2023-02-12T00:13:07;4.54;;;3.12;;
60641;SDS011;46837;52.446;-1.930;2023-02-12T00:14:07;5.72;;;2.60;;
60641;SDS011;46837;52.446;-1.930;2023-02-12T00:15:07;10.48;;;3.74;;
60641;SDS011;46837;52.446;-1.930;2023-02-12T00:16:07;6.02;;;2.98;;
60641;SDS011;46837;52.446;-1.930;2023-02-12T00:17:07;7.46;;;3.96;;
60641;SDS011;46837;52.446;-1.930;2023-02-12T00:18:07;5.96;;;3.88;;
60641;SDS011;46837;52.446;-1.930;2023-02-12T00:19:07;6.96;;;3.94;;
60641;SDS011;46837;52.446;-1.930;2023-02-12T00:20:07;6.04;;;3.64;;
60641;SDS011;46837;52.446;-1.930;2023-02-12T00:21:07;9.54;;;4.54;;
60641;SDS011;46837;52.446;-1.930;2023-02-12T00:22:07;17.76;;;5.08;;
60641;SDS011;46837;52.446;-1.930;2023-02-12T00:23:07;13.10;;;5.40;;
60641;SDS011;46837;52.446;-1.930;2023-02-12T00:24:07;6.24;;;4.06;;
60641;SDS011;46837;52.446;-1.930;2023-02-12T00:25:07;7.70;;;4.82;;
60641;SDS011;46837;52.446;-1.930;2023-02-12T00:26:08;7.52;;;4.28;;
60641;SDS011;46837;52.446;-1.930;2023-02-12T00:27:07;6.28;;;3.22;;
60641;SDS011;46837;52.446;-1.930;2023-02-12T00:28:07;6.06;;;3.38;;
60641;SDS011;46837;52.446;-1.930;2023-02-12T00:29:07;8.62;;;4.02;;
60641;SDS011;46837;52.446;-1.930;2023-02-12T00:30:07;9.48;;;3.54;;
60641;SDS011;46837;52.446;-1.930;2023-02-12T00:31:08;11.14;;;4.52;;
60641;SDS011;46837;52.446;-1.930;2023-02-12T00:32:07;5.00;;;3.80;;
60641;SDS011;46837;52.446;-1.930;2023-02-12T00:33:07;7.56;;;3.70;;
60641;SDS011;46837;52.446;-1.930;2023-02-12T00:34:08;7.50;;;3.68;;
60641;SDS011;46837;52.446;-1.930;2023-02-12T00:35:07;10.18;;;3.66;;
60641;SDS011;46837;52.446;-1.930;2023-02-12T00:36:07;8.44;;;3.88;;
60641;SDS011;46837;52.446;-1.930;2023-02-12T00:37:07;9.54;;;4.38;;
60641;SDS011;46837;52.446;-1.930;2023-02-12T00:38:07;6.22;;;4.62;;
60641;SDS011;46837;52.446;-1.930;2023-02-12T00:39:08;8.22;;;3.32;;
60641;SDS011;46837;52.446;-1.930;2023-02-12T00:40:07;8.36;;;4.48;;
60641;SDS011;46837;52.446;-1.930;2023-02-12T00:41:07;6.50;;;3.52;;
60641;SDS011;46837;52.446;-1.930;2023-02-12T00:42:07;6.10;;;3.30;;
60641;SDS011;46837;52.446;-1.930;2023-02-12T00:43:07;5.74;;;3.78;;
60641;SDS011;46837;52.446;-1.930;2023-02-12T00:44:07;6.96;;;4.00;;
60641;SDS011;46837;52.446;-1.930;2023-02-12T00:45:07;7.52;;;3.90;;
60641;SDS011;46837;52.446;-1.930;2023-02-12T00:46:07;5.04;;;3.78;;
60641;SDS011;46837;52.446;-1.930;2023-02-12T00:47:07;5.04;;;3.56;;
60641;SDS011;46837;52.446;-1.930;2023-02-12T00:48:07;6.30;;;3.44;;
60641;SDS011;46837;52.446;-1.930;2023-02-12T00:49:07;5.88;;;3.08;;
60641;SDS011;46837;52.446;-1.930;2023-02-12T00:50:07;8.30;;;4.58;;
60641;SDS011;46837;52.446;-1.930;2023-02-12T00:51:07;7.74;;;4.14;;
60641;SDS011;46837;52.446;-1.930;2023-02-12T00:52:07;11.32;;;4.42;;
60641;SDS011;46837;52.446;-1.930;2023-02-12T00:53:07;10.08;;;4.14;;
60641;SDS011;46837;52.446;-1.930;2023-02-12T00:54:07;5.94;;;3.56;;
60641;SDS011;46837;52.446;-1.930;2023-02-12T00:55:07;8.00;;;4.14;;
60641;SDS011;46837;52.446;-1.930;2023-02-12T00:56:07;7.06;;;2.98;;
60641;SDS011;46837;52.446;-1.930;2023-02-12T00:57:07;7.42;;;3.82;;
60641;SDS011;46837;52.446;-1.930;2023-02-12T00:58:07;10.52;;;4.18;;
60641;SDS011;46837;52.446;-1.930;2023-02-12T00:59:07;4.66;;;3.58;;
60641;SDS011;46837;52.446;-1.930;2023-02-12T01:00:07;7.14;;;3.34;;
60641;SDS011;46837;52.446;-1.930;2023-02-12T01:01:07;5.86;;;3.98;;
60641;SDS011;46837;52.446;-1.930;2023-02-12T01:02:07;9.08;;;4.78;;
60641;SDS011;46837;52.446;-1.930;2023-02-12T01:03:07;4.94;;;4.08;;
60641;SDS011;46837;52.446;-1.930;2023-02-12T01:04:07;5.80;;;3.84;;
60641;SDS011;46837;52.446;-1.930;2023-02-12T01:05:07;6.52;;;3.70;;
60641;SDS011;46837;52.446;-1.930;2023-02-12T01:06:07;5.20;;;3.58;;
60641;SDS011;46837;52.446;-1.930;2023-02-12T01:07:07;4.80;;;3.68;;
60641;SDS011;46837;52.446;-1.930;2023-02-12T01:08:07;6.38;;;3.60;;
60641;SDS011;46837;52.446;-1.930;2023-02-12T01:09:07;3.76;;;3.18;;
60641;SDS011;46837;52.446;-1.930;2023-02-12T01:10:08;3.26;;;2.96;;
60641;SDS011;46837;52.446;-1.930;2023-02-12T01:11:07;4.74;;;2.90;;
60641;SDS011;46837;52.446;-1.930;2023-02-12T01:12:07;5.92;;;3.56;;
60641;SDS011;46837;52.446;-1.930;2023-02-12T01:13:07;6.94;;;3.70;;
60641;SDS011;46837;52.446;-1.930;2023-02-12T01:14:07;7.02;;;3.84;;
60641;SDS011;46837;52.446;-1.930;2023-02-12T01:15:07;10.92;;;3.70;;
60641;SDS011;46837;52.446;-1.930;2023-02-12T01:16:09;8.34;;;3.12;;
60641;SDS011;46837;52.446;-1.930;2023-02-12T01:17:07;5.00;;;3.32;;
60641;SDS011;46837;52.446;-1.930;2023-02-12T01:18:07;4.42;;;3.10;;
60641;SDS011;46837;52.446;-1.930;2023-02-12T01:19:07;5.74;;;3.24;;
60641;SDS011;46837;52.446;-1.930;2023-02-12T01:20:07;6.00;;;3.80;;
60641;SDS011;46837;52.446;-1.930;2023-02-12T01:21:10;3.74;;;2.70;;
60641;SDS011;46837;52.446;-1.930;2023-02-12T01:22:07;4.36;;;3.18;;
60641;SDS011;46837;52.446;-1.930;2023-02-12T01:23:08;7.76;;;3.66;;
60641;SDS011;46837;52.446;-1.930;2023-02-12T01:24:07;4.40;;;2.48;;
60641;SDS011;46837;52.446;-1.930;2023-02-12T01:25:07;3.02;;;2.38;;
60641;SDS011;46837;52.446;-1.930;2023-02-12T01:26:07;8.18;;;3.12;;
60641;SDS011;46837;52.446;-1.930;2023-02-12T01:27:07;4.06;;;2.82;;
60641;SDS011;46837;52.446;-1.930;2023-02-12T01:28:08;5.44;;;2.30;;
60641;SDS011;46837;52.446;-1.930;2023-02-12T01:29:07;9.94;;;3.66;;
60641;SDS011;46837;52.446;-1.930;2023-02-12T01:30:09;4.02;;;2.54;;
60641;SDS011;46837;52.446;-1.930;2023-02-12T01:31:10;5.90;;;3.06;;
60641;SDS011;46837;52.446;-1.930;2023-02-12T01:32:07;6.34;;;3.04;;
60641;SDS011;46837;52.446;-1.930;2023-02-12T01:33:07;4.22;;;2.82;;
60641;SDS011;46837;52.446;-1.930;2023-02-12T01:34:07;5.38;;;2.82;;
60641;SDS011;46837;52.446;-1.930;2023-02-12T01:35:07;6.60;;;3.38;;
60641;SDS011;46837;52.446;-1.930;2023-02-12T01:36:07;4.32;;;3.14;;
60641;SDS011;46837;52.446;-1.930;2023-02-12T01:37:07;3.50;;;2.98;;
60641;SDS011;46837;52.446;-1.930;2023-02-12T01:38:07;9.02;;;2.44;;
60641;SDS011;46837;52.446;-1.930;2023-02-12T01:39:07;5.70;;;3.40;;
60641;SDS011;46837;52.446;-1.930;2023-02-12T01:40:07;2.84;;;2.26;;
60641;SDS011;46837;52.446;-1.930;2023-02-12T01:41:08;5.78;;;3.88;;
60641;SDS011;46837;52.446;-1.930;2023-02-12T01:42:09;6.22;;;3.68;;
60641;SDS011;46837;52.446;-1.930;2023-02-12T01:43:09;5.40;;;4.00;;
60641;SDS011;46837;52.446;-1.930;2023-02-12T01:44:09;6.02;;;3.78;;
60641;SDS011;46837;52.446;-1.930;2023-02-12T01:46:07;4.02;;;3.18;;
60641;SDS011;46837;52.446;-1.930;2023-02-12T01:47:11;3.70;;;2.96;;
60641;SDS011;46837;52.446;-1.930;2023-02-12T01:48:07;5.16;;;3.04;;
60641;SDS011;46837;52.446;-1.930;2023-02-12T01:49:11;5.52;;;3.02;;
60641;SDS011;46837;52.446;-1.930;2023-02-12T01:50:07;6.46;;;3.40;;
60641;SDS011;46837;52.446;-1.930;2023-02-12T01:51:08;3.46;;;3.06;;
60641;SDS011;46837;52.446;-1.930;2023-02-12T01:53:07;3.38;;;2.74;;
60641;SDS011;46837;52.446;-1.930;2023-02-12T01:54:07;5.96;;;4.38;;
60641;SDS011;46837;52.446;-1.930;2023-02-12T01:55:07;4.32;;;3.08;;
60641;SDS011;46837;52.446;-1.930;2023-02-12T01:56:07;6.46;;;3.34;;
60641;SDS011;46837;52.446;-1.930;2023-02-12T01:57:07;6.32;;;3.04;;
60641;SDS011;46837;52.446;-1.930;2023-02-12T01:58:07;6.26;;;3.16;;
60641;SDS011;46837;52.446;-1.930;2023-02-12T01:59:07;8.18;;;4.08;;
60641;SDS011;46837;52.446;-1.930;2023-02-12T02:00:11;3.78;;;2.90;;
60641;SDS011;46837;52.446;-1.930;2023-02-12T02:01:08;6.84;;;3.72;;
60641;SDS011;46837;52.446;-1.930;2023-02-12T02:02:07;5.70;;;3.56;;
60641;SDS011;46837;52.446;-1.930;2023-02-12T02:03:07;5.46;;;4.06;;
60641;SDS011;46837;52.446;-1.930;2023-02-12T02:04:08;7.70;;;4.96;;
60641;SDS011;46837;52.446;-1.930;2023-02-12T02:05:07;11.06;;;8.06;;
60641;SDS011;46837;52.446;-1.930;2023-02-12T02:06:08;12.40;;;7.76;;
60641;SDS011;46837;52.446;-1.930;2023-02-12T02:07:07;9.46;;;8.00;;
60641;SDS011;46837;52.446;-1.930;2023-02-12T02:08:07;6.98;;;5.58;;
60641;SDS011;46837;52.446;-1.930;2023-02-12T02:09:07;11.00;;;6.68;;
60641;SDS011;46837;52.446;-1.930;2023-02-12T02:10:07;10.06;;;7.24;;
60641;SDS011;46837;52.446;-1.930;2023-02-12T02:11:11;11.98;;;7.24;;
60641;SDS011;46837;52.446;-1.930;2023-02-12T02:12:11;7.32;;;5.58;;
60641;SDS011;46837;52.446;-1.930;2023-02-12T02:13:11;9.70;;;7.32;;
60641;SDS011;46837;52.446;-1.930;2023-02-12T02:14:11;9.08;;;6.74;;
60641;SDS011;46837;52.446;-1.930;2023-02-12T02:15:07;10.70;;;5.88;;
60641;SDS011;46837;52.446;-1.930;2023-02-12T02:16:21;10.44;;;5.88;;
60641;SDS011;46837;52.446;-1.930;2023-02-12T02:24:10;6.38;;;4.80;;
60641;SDS011;46837;52.446;-1.930;2023-02-12T02:27:16;9.04;;;5.14;;
60641;SDS011;46837;52.446;-1.930;2023-02-12T02:32:08;6.92;;;3.70;;
60641;SDS011;46837;52.446;-1.930;2023-02-12T02:33:09;8.50;;;4.38;;
60641;SDS011;46837;52.446;-1.930;2023-02-12T02:35:11;7.00;;;4.52;;
60641;SDS011;46837;52.446;-1.930;2023-02-12T02:36:51;5.46;;;3.64;;
60641;SDS011;46837;52.446;-1.930;2023-02-12T02:37:13;9.66;;;3.94;;
60641;SDS011;46837;52.446;-1.930;2023-02-12T02:40:10;7.18;;;4.40;;
60641;SDS011;46837;52.446;-1.930;2023-02-12T02:42:09;4.38;;;3.84;;
60641;SDS011;46837;52.446;-1.930;2023-02-12T02:43:14;5.72;;;4.44;;
60641;SDS011;46837;52.446;-1.930;2023-02-12T02:44:09;5.12;;;4.14;;
60641;SDS011;46837;52.446;-1.930;2023-02-12T02:45:10;5.08;;;2.54;;
60641;SDS011;46837;52.446;-1.930;2023-02-12T02:46:09;4.84;;;3.68;;
60641;SDS011;46837;52.446;-1.930;2023-02-12T02:47:08;7.24;;;4.66;;
60641;SDS011;46837;52.446;-1.930;2023-02-12T02:49:08;4.68;;;4.26;;
60641;SDS011;46837;52.446;-1.930;2023-02-12T02:50:11;5.80;;;3.68;;
60641;SDS011;46837;52.446;-1.930;2023-02-12T02:51:08;5.32;;;4.18;;
60641;SDS011;46837;52.446;-1.930;2023-02-12T02:52:08;6.22;;;4.14;;
60641;SDS011;46837;52.446;-1.930;2023-02-12T02:55:07;4.80;;;3.88;;
60641;SDS011;46837;52.446;-1.930;2023-02-12T02:56:08;5.38;;;4.12;;
60641;SDS011;46837;52.446;-1.930;2023-02-12T02:57:08;6.84;;;3.48;;
60641;SDS011;46837;52.446;-1.930;2023-02-12T03:00:11;11.92;;;5.06;;
60641;SDS011;46837;52.446;-1.930;2023-02-12T03:01:09;11.88;;;3.80;;
60641;SDS011;46837;52.446;-1.930;2023-02-12T03:03:17;5.06;;;4.08;;
60641;SDS011;46837;52.446;-1.930;2023-02-12T03:04:07;4.32;;;3.26;;
60641;SDS011;46837;52.446;-1.930;2023-02-12T03:05:15;17.18;;;3.72;;
60641;SDS011;46837;52.446;-1.930;2023-02-12T03:06:09;6.42;;;3.40;;
60641;SDS011;46837;52.446;-1.930;2023-02-12T03:07:10;4.12;;;2.74;;
60641;SDS011;46837;52.446;-1.930;2023-02-12T03:08:11;4.92;;;2.92;;
60641;SDS011;46837;52.446;-1.930;2023-02-12T03:09:26;5.56;;;3.40;;
60641;SDS011;46837;52.446;-1.930;2023-02-12T03:11:11;3.58;;;2.76;;
60641;SDS011;46837;52.446;-1.930;2023-02-12T03:12:14;6.16;;;3.94;;
60641;SDS011;46837;52.446;-1.930;2023-02-12T03:13:08;6.32;;;3.58;;
60641;SDS011;46837;52.446;-1.930;2023-02-12T03:14:10;8.72;;;2.90;;
60641;SDS011;46837;52.446;-1.930;2023-02-12T03:17:08;6.66;;;3.48;;
60641;SDS011;46837;52.446;-1.930;2023-02-12T03:18:08;6.16;;;3.58;;
60641;SDS011;46837;52.446;-1.930;2023-02-12T03:19:11;3.50;;;2.72;;
60641;SDS011;46837;52.446;-1.930;2023-02-12T03:20:09;2.94;;;2.50;;
60641;SDS011;46837;52.446;-1.930;2023-02-12T03:21:09;4.24;;;3.04;;
60641;SDS011;46837;52.446;-1.930;2023-02-12T03:22:08;6.06;;;3.32;;
60641;SDS011;46837;52.446;-1.930;2023-02-12T03:23:09;6.72;;;3.24;;
60641;SDS011;46837;52.446;-1.930;2023-02-12T03:24:11;5.90;;;3.14;;
60641;SDS011;46837;52.446;-1.930;2023-02-12T03:26:09;5.86;;;3.14;;
60641;SDS011;46837;52.446;-1.930;2023-02-12T03:28:12;7.80;;;3.04;;
60641;SDS011;46837;52.446;-1.930;2023-02-12T03:29:07;3.12;;;2.84;;
60641;SDS011;46837;52.446;-1.930;2023-02-12T03:30:07;5.74;;;3.22;;
60641;SDS011;46837;52.446;-1.930;2023-02-12T03:31:09;5.28;;;2.74;;
60641;SDS011;46837;52.446;-1.930;2023-02-12T03:33:19;4.04;;;2.48;;
60641;SDS011;46837;52.446;-1.930;2023-02-12T03:34:12;4.12;;;2.96;;
60641;SDS011;46837;52.446;-1.930;2023-02-12T03:35:13;6.42;;;3.04;;
60641;SDS011;46837;52.446;-1.930;2023-02-12T03:36:09;6.48;;;3.04;;
60641;SDS011;46837;52.446;-1.930;2023-02-12T03:37:08;3.62;;;3.14;;
60641;SDS011;46837;52.446;-1.930;2023-02-12T03:39:11;6.50;;;5.90;;
60641;SDS011;46837;52.446;-1.930;2023-02-12T03:40:13;6.32;;;4.76;;
60641;SDS011;46837;52.446;-1.930;2023-02-12T03:41:08;8.80;;;4.46;;
60641;SDS011;46837;52.446;-1.930;2023-02-12T03:42:12;4.06;;;2.82;;
60641;SDS011;46837;52.446;-1.930;2023-02-12T03:46:10;3.44;;;2.56;;
60641;SDS011;46837;52.446;-1.930;2023-02-12T03:48:12;2.76;;;2.18;;
60641;SDS011;46837;52.446;-1.930;2023-02-12T03:49:12;4.04;;;2.38;;
60641;SDS011;46837;52.446;-1.930;2023-02-12T03:52:07;3.46;;;2.16;;
60641;SDS011;46837;52.446;-1.930;2023-02-12T03:53:07;4.26;;;2.70;;
60641;SDS011;46837;52.446;-1.930;2023-02-12T03:54:07;3.26;;;2.66;;
60641;SDS011;46837;52.446;-1.930;2023-02-12T03:55:07;4.26;;;2.04;;
60641;SDS011;46837;52.446;-1.930;2023-02-12T03:56:08;2.12;;;2.02;;
60641;SDS011;46837;52.446;-1.930;2023-02-12T03:57:11;2.40;;;1.84;;
60641;SDS011;46837;52.446;-1.930;2023-02-12T03:58:07;4.32;;;2.54;;
60641;SDS011;46837;52.446;-1.930;2023-02-12T03:59:07;2.40;;;2.20;;
60641;SDS011;46837;52.446;-1.930;2023-02-12T04:00:09;2.76;;;2.42;;
60641;SDS011;46837;52.446;-1.930;2023-02-12T04:01:07;3.16;;;2.08;;
60641;SDS011;46837;52.446;-1.930;2023-02-12T04:02:07;5.42;;;2.24;;
60641;SDS011;46837;52.446;-1.930;2023-02-12T04:03:07;3.18;;;2.90;;
60641;SDS011;46837;52.446;-1.930;2023-02-12T04:04:07;5.20;;;2.64;;
60641;SDS011;46837;52.446;-1.930;2023-02-12T04:05:07;3.70;;;2.90;;
60641;SDS011;46837;52.446;-1.930;2023-02-12T04:07:07;3.08;;;2.32;;
60641;SDS011;46837;52.446;-1.930;2023-02-12T04:08:07;6.84;;;3.10;;
60641;SDS011;46837;52.446;-1.930;2023-02-12T04:09:08;3.70;;;2.46;;
60641;SDS011;46837;52.446;-1.930;2023-02-12T04:10:07;3.72;;;2.10;;
60641;SDS011;46837;52.446;-1.930;2023-02-12T04:11:12;2.72;;;2.12;;
60641;SDS011;46837;52.446;-1.930;2023-02-12T04:13:11;5.16;;;2.66;;
60641;SDS011;46837;52.446;-1.930;2023-02-12T04:14:12;3.26;;;2.40;;
60641;SDS011;46837;52.446;-1.930;2023-02-12T04:19:07;3.34;;;2.14;;
60641;SDS011;46837;52.446;-1.930;2023-02-12T04:20:10;5.32;;;2.54;;
60641;SDS011;46837;52.446;-1.930;2023-02-12T04:21:11;3.72;;;2.50;;
60641;SDS011;46837;52.446;-1.930;2023-02-12T04:22:10;3.40;;;2.14;;
60641;SDS011;46837;52.446;-1.930;2023-02-12T04:26:15;3.88;;;2.36;;
60641;SDS011;46837;52.446;-1.930;2023-02-12T04:27:09;2.68;;;2.44;;
60641;SDS011;46837;52.446;-1.930;2023-02-12T04:29:10;5.22;;;3.42;;
60641;SDS011;46837;52.446;-1.930;2023-02-12T04:32:17;3.36;;;2.54;;
60641;SDS011;46837;52.446;-1.930;2023-02-12T04:33:07;3.26;;;2.66;;
60641;SDS011;46837;52.446;-1.930;2023-02-12T04:34:09;2.30;;;2.10;;
60641;SDS011;46837;52.446;-1.930;2023-02-12T04:35:12;4.22;;;2.38;;
60641;SDS011;46837;52.446;-1.930;2023-02-12T04:36:18;3.32;;;1.96;;
60641;SDS011;46837;52.446;-1.930;2023-02-12T04:37:12;5.60;;;2.48;;
60641;SDS011;46837;52.446;-1.930;2023-02-12T04:38:08;3.20;;;2.16;;
60641;SDS011;46837;52.446;-1.930;2023-02-12T04:39:11;2.48;;;2.28;;
60641;SDS011;46837;52.446;-1.930;2023-02-12T04:40:08;3.32;;;2.94;;
60641;SDS011;46837;52.446;-1.930;2023-02-12T04:41:07;3.16;;;2.48;;
60641;SDS011;46837;52.446;-1.930;2023-02-12T04:42:07;7.28;;;3.22;;
60641;SDS011;46837;52.446;-1.930;2023-02-12T04:43:07;2.60;;;2.40;;
60641;SDS011;46837;52.446;-1.930;2023-02-12T04:45:08;3.20;;;2.32;;
60641;SDS011;46837;52.446;-1.930;2023-02-12T04:46:07;3.82;;;2.20;;
60641;SDS011;46837;52.446;-1.930;2023-02-12T04:47:07;5.58;;;2.36;;
60641;SDS011;46837;52.446;-1.930;2023-02-12T04:48:07;2.40;;;2.16;;
60641;SDS011;46837;52.446;-1.930;2023-02-12T04:49:08;3.74;;;2.16;;
60641;SDS011;46837;52.446;-1.930;2023-02-12T04:50:07;4.96;;;2.56;;
60641;SDS011;46837;52.446;-1.930;2023-02-12T04:51:07;12.14;;;2.64;;
60641;SDS011;46837;52.446;-1.930;2023-02-12T04:52:07;3.40;;;2.78;;
60641;SDS011;46837;52.446;-1.930;2023-02-12T04:53:07;3.00;;;2.28;;
60641;SDS011;46837;52.446;-1.930;2023-02-12T04:54:07;3.86;;;2.36;;
60641;SDS011;46837;52.446;-1.930;2023-02-12T04:55:07;3.56;;;2.36;;
60641;SDS011;46837;52.446;-1.930;2023-02-12T04:56:08;3.22;;;2.48;;
60641;SDS011;46837;52.446;-1.930;2023-02-12T04:57:07;3.26;;;1.96;;
60641;SDS011;46837;52.446;-1.930;2023-02-12T04:58:07;3.02;;;2.50;;
60641;SDS011;46837;52.446;-1.930;2023-02-12T04:59:07;3.76;;;2.40;;
60641;SDS011;46837;52.446;-1.930;2023-02-12T05:00:07;4.94;;;2.80;;
60641;SDS011;46837;52.446;-1.930;2023-02-12T05:01:07;5.12;;;2.40;;
60641;SDS011;46837;52.446;-1.930;2023-02-12T05:02:07;6.74;;;2.76;;
60641;SDS011;46837;52.446;-1.930;2023-02-12T05:03:07;6.80;;;2.86;;
60641;SDS011;46837;52.446;-1.930;2023-02-12T05:04:07;2.60;;;2.26;;
60641;SDS011;46837;52.446;-1.930;2023-02-12T05:05:07;4.80;;;2.30;;
60641;SDS011;46837;52.446;-1.930;2023-02-12T05:06:08;4.00;;;2.68;;
60641;SDS011;46837;52.446;-1.930;2023-02-12T05:07:07;4.38;;;2.76;;
60641;SDS011;46837;52.446;-1.930;2023-02-12T05:08:07;2.56;;;2.36;;
60641;SDS011;46837;52.446;-1.930;2023-02-12T05:09:07;3.30;;;3.00;;
60641;SDS011;46837;52.446;-1.930;2023-02-12T05:10:07;5.94;;;3.20;;
60641;SDS011;46837;52.446;-1.930;2023-02-12T05:11:07;3.48;;;2.48;;
60641;SDS011;46837;52.446;-1.930;2023-02-12T05:12:07;5.96;;;2.56;;
60641;SDS011;46837;52.446;-1.930;2023-02-12T05:13:07;2.78;;;2.08;;
60641;SDS011;46837;52.446;-1.930;2023-02-12T05:14:07;2.80;;;2.20;;
60641;SDS011;46837;52.446;-1.930;2023-02-12T05:15:07;3.22;;;2.26;;
60641;SDS011;46837;52.446;-1.930;2023-02-12T05:16:07;3.28;;;2.10;;
60641;SDS011;46837;52.446;-1.930;2023-02-12T05:17:07;3.92;;;2.00;;
60641;SDS011;46837;52.446;-1.930;2023-02-12T05:18:07;3.44;;;2.10;;
60641;SDS011;46837;52.446;-1.930;2023-02-12T05:19:07;3.82;;;2.06;;
60641;SDS011;46837;52.446;-1.930;2023-02-12T05:20:07;4.36;;;1.88;;
60641;SDS011;46837;52.446;-1.930;2023-02-12T05:21:07;1.84;;;1.74;;
60641;SDS011;46837;52.446;-1.930;2023-02-12T05:22:07;2.30;;;2.10;;
60641;SDS011;46837;52.446;-1.930;2023-02-12T05:23:07;2.88;;;2.02;;
60641;SDS011;46837;52.446;-1.930;2023-02-12T05:24:07;1.80;;;1.70;;
60641;SDS011;46837;52.446;-1.930;2023-02-12T05:25:07;2.42;;;1.98;;
60641;SDS011;46837;52.446;-1.930;2023-02-12T05:26:11;3.18;;;1.92;;
60641;SDS011;46837;52.446;-1.930;2023-02-12T05:27:07;1.60;;;1.48;;
60641;SDS011;46837;52.446;-1.930;2023-02-12T05:28:07;1.72;;;1.62;;
60641;SDS011;46837;52.446;-1.930;2023-02-12T05:29:07;3.62;;;2.32;;
60641;SDS011;46837;52.446;-1.930;2023-02-12T05:30:07;3.80;;;1.62;;
60641;SDS011;46837;52.446;-1.930;2023-02-12T05:31:07;3.66;;;1.76;;
60641;SDS011;46837;52.446;-1.930;2023-02-12T05:32:07;3.10;;;2.52;;
60641;SDS011;46837;52.446;-1.930;2023-02-12T05:33:07;4.34;;;2.18;;
60641;SDS011;46837;52.446;-1.930;2023-02-12T05:34:08;3.72;;;1.82;;
60641;SDS011;46837;52.446;-1.930;2023-02-12T05:35:07;4.28;;;1.80;;
60641;SDS011;46837;52.446;-1.930;2023-02-12T05:36:08;2.26;;;1.48;;
60641;SDS011;46837;52.446;-1.930;2023-02-12T05:37:07;3.48;;;1.66;;
60641;SDS011;46837;52.446;-1.930;2023-02-12T05:38:07;3.40;;;1.82;;
60641;SDS011;46837;52.446;-1.930;2023-02-12T05:39:07;2.42;;;1.68;;
60641;SDS011;46837;52.446;-1.930;2023-02-12T05:40:07;2.02;;;1.84;;
60641;SDS011;46837;52.446;-1.930;2023-02-12T05:41:08;1.80;;;1.32;;
60641;SDS011;46837;52.446;-1.930;2023-02-12T05:42:07;1.82;;;1.68;;
60641;SDS011;46837;52.446;-1.930;2023-02-12T05:43:07;2.44;;;1.44;;
60641;SDS011;46837;52.446;-1.930;2023-02-12T05:44:07;2.54;;;2.18;;
60641;SDS011;46837;52.446;-1.930;2023-02-12T05:45:07;5.02;;;2.28;;
60641;SDS011;46837;52.446;-1.930;2023-02-12T05:46:07;5.16;;;2.24;;
60641;SDS011;46837;52.446;-1.930;2023-02-12T05:47:07;3.38;;;1.90;;
60641;SDS011;46837;52.446;-1.930;2023-02-12T05:48:07;5.20;;;3.00;;
60641;SDS011;46837;52.446;-1.930;2023-02-12T05:49:07;2.74;;;1.82;;
60641;SDS011;46837;52.446;-1.930;2023-02-12T05:50:07;2.74;;;1.88;;
60641;SDS011;46837;52.446;-1.930;2023-02-12T05:51:08;4.62;;;2.06;;
60641;SDS011;46837;52.446;-1.930;2023-02-12T05:52:07;2.62;;;2.24;;
60641;SDS011;46837;52.446;-1.930;2023-02-12T05:53:07;1.60;;;1.50;;
60641;SDS011;46837;52.446;-1.930;2023-02-12T05:54:07;2.04;;;1.80;;
60641;SDS011;46837;52.446;-1.930;2023-02-12T05:55:07;6.08;;;2.12;;
60641;SDS011;46837;52.446;-1.930;2023-02-12T05:56:11;3.00;;;2.42;;
60641;SDS011;46837;52.446;-1.930;2023-02-12T05:57:07;2.78;;;2.48;;
60641;SDS011;46837;52.446;-1.930;2023-02-12T05:58:07;4.44;;;2.00;;
60641;SDS011;46837;52.446;-1.930;2023-02-12T05:59:10;2.82;;;2.22;;
60641;SDS011;46837;52.446;-1.930;2023-02-12T06:00:08;6.42;;;2.30;;
60641;SDS011;46837;52.446;-1.930;2023-02-12T06:02:07;5.42;;;2.24;;
60641;SDS011;46837;52.446;-1.930;2023-02-12T06:03:07;3.22;;;2.06;;
60641;SDS011;46837;52.446;-1.930;2023-02-12T06:04:09;5.48;;;2.44;;
60641;SDS011;46837;52.446;-1.930;2023-02-12T06:05:07;4.60;;;2.58;;
60641;SDS011;46837;52.446;-1.930;2023-02-12T06:06:07;4.36;;;2.48;;
60641;SDS011;46837;52.446;-1.930;2023-02-12T06:07:07;10.60;;;2.42;;
60641;SDS011;46837;52.446;-1.930;2023-02-12T06:08:07;4.46;;;2.02;;
60641;SDS011;46837;52.446;-1.930;2023-02-12T06:09:07;4.18;;;2.02;;
60641;SDS011;46837;52.446;-1.930;2023-02-12T06:10:07;5.20;;;2.62;;
60641;SDS011;46837;52.446;-1.930;2023-02-12T06:11:09;3.10;;;1.98;;
60641;SDS011;46837;52.446;-1.930;2023-02-12T06:12:07;2.74;;;2.36;;
60641;SDS011;46837;52.446;-1.930;2023-02-12T06:13:07;3.34;;;2.14;;
60641;SDS011;46837;52.446;-1.930;2023-02-12T06:14:07;5.54;;;1.98;;
60641;SDS011;46837;52.446;-1.930;2023-02-12T06:15:07;5.12;;;2.96;;
60641;SDS011;46837;52.446;-1.930;2023-02-12T06:16:14;2.98;;;2.56;;
60641;SDS011;46837;52.446;-1.930;2023-02-12T06:17:07;2.54;;;1.86;;
60641;SDS011;46837;52.446;-1.930;2023-02-12T06:18:07;4.80;;;2.44;;
60641;SDS011;46837;52.446;-1.930;2023-02-12T06:19:07;6.26;;;2.86;;
60641;SDS011;46837;52.446;-1.930;2023-02-12T06:20:07;5.38;;;2.82;;
60641;SDS011;46837;52.446;-1.930;2023-02-12T06:21:07;3.90;;;2.58;;
60641;SDS011;46837;52.446;-1.930;2023-02-12T06:22:07;2.44;;;2.06;;
60641;SDS011;46837;52.446;-1.930;2023-02-12T06:23:07;5.36;;;2.32;;
60641;SDS011;46837;52.446;-1.930;2023-02-12T06:24:07;3.22;;;1.98;;
60641;SDS011;46837;52.446;-1.930;2023-02-12T06:25:07;2.68;;;2.40;;
60641;SDS011;46837;52.446;-1.930;2023-02-12T06:26:07;3.30;;;2.54;;
60641;SDS011;46837;52.446;-1.930;2023-02-12T06:27:07;7.82;;;2.62;;
60641;SDS011;46837;52.446;-1.930;2023-02-12T06:28:07;6.46;;;2.82;;
60641;SDS011;46837;52.446;-1.930;2023-02-12T06:29:07;4.58;;;2.64;;
60641;SDS011;46837;52.446;-1.930;2023-02-12T06:30:07;6.30;;;2.90;;
60641;SDS011;46837;52.446;-1.930;2023-02-12T06:32:08;3.96;;;2.64;;
60641;SDS011;46837;52.446;-1.930;2023-02-12T06:33:07;3.80;;;2.98;;
60641;SDS011;46837;52.446;-1.930;2023-02-12T06:34:07;5.70;;;3.18;;
60641;SDS011;46837;52.446;-1.930;2023-02-12T06:35:07;4.48;;;2.64;;
60641;SDS011;46837;52.446;-1.930;2023-02-12T06:36:07;4.62;;;3.52;;
60641;SDS011;46837;52.446;-1.930;2023-02-12T06:37:07;2.98;;;2.42;;
60641;SDS011;46837;52.446;-1.930;2023-02-12T06:38:07;3.66;;;3.12;;
60641;SDS011;46837;52.446;-1.930;2023-02-12T06:39:07;6.32;;;3.22;;
60641;SDS011;46837;52.446;-1.930;2023-02-12T06:40:07;5.94;;;2.92;;
60641;SDS011;46837;52.446;-1.930;2023-02-12T06:41:07;4.04;;;2.64;;
60641;SDS011;46837;52.446;-1.930;2023-02-12T06:42:07;3.00;;;2.30;;
60641;SDS011;46837;52.446;-1.930;2023-02-12T06:43:07;4.76;;;2.36;;
60641;SDS011;46837;52.446;-1.930;2023-02-12T06:44:07;6.16;;;2.92;;
60641;SDS011;46837;52.446;-1.930;2023-02-12T06:45:07;4.12;;;2.72;;
60641;SDS011;46837;52.446;-1.930;2023-02-12T06:46:07;2.72;;;2.42;;
60641;SDS011;46837;52.446;-1.930;2023-02-12T06:47:07;5.94;;;2.98;;
60641;SDS011;46837;52.446;-1.930;2023-02-12T06:48:07;4.38;;;2.44;;